sensor_id;sensor_type;location;lat;lon;timestamp;P1;durP1;ratioP1;P2;durP2;ratioP2
8791;SDS011;4432;50.890;4.744;2022-07-06T00:01:58;1.77;;;1.60;;
8791;SDS011;4432;50.890;4.744;2022-07-06T00:04:24;1.90;;;1.50;;
8791;SDS011;4432;50.890;4.744;2022-07-06T00:06:50;2.67;;;1.53;;
8791;SDS011;4432;50.890;4.744;2022-07-06T00:09:16;1.60;;;1.50;;
8791;SDS011;4432;50.890;4.744;2022-07-06T00:11:42;1.60;;;1.50;;
8791;SDS011;4432;50.890;4.744;2022-07-06T00:14:07;2.17;;;1.60;;
8791;SDS011;4432;50.890;4.744;2022-07-06T00:16:33;1.30;;;1.20;;
8791;SDS011;4432;50.890;4.744;2022-07-06T00:18:59;4.03;;;1.50;;
8791;SDS011;4432;50.890;4.744;2022-07-06T00:21:25;1.40;;;1.30;;
8791;SDS011;4432;50.890;4.744;2022-07-06T00:23:50;1.60;;;1.50;;
8791;SDS011;4432;50.890;4.744;2022-07-06T00:26:17;1.50;;;1.40;;
8791;SDS011;4432;50.890;4.744;2022-07-06T00:28:43;1.67;;;1.57;;
8791;SDS011;4432;50.890;4.744;2022-07-06T00:31:09;2.30;;;1.50;;
8791;SDS011;4432;50.890;4.744;2022-07-06T00:33:35;1.50;;;1.40;;
8791;SDS011;4432;50.890;4.744;2022-07-06T00:36:01;3.53;;;1.70;;
8791;SDS011;4432;50.890;4.744;2022-07-06T00:38:27;3.63;;;1.77;;
8791;SDS011;4432;50.890;4.744;2022-07-06T00:40:53;2.10;;;1.90;;
8791;SDS011;4432;50.890;4.744;2022-07-06T00:43:18;1.73;;;1.40;;
8791;SDS011;4432;50.890;4.744;2022-07-06T00:45:44;2.20;;;1.90;;
8791;SDS011;4432;50.890;4.744;2022-07-06T00:48:10;4.40;;;1.80;;
8791;SDS011;4432;50.890;4.744;2022-07-06T00:50:37;1.67;;;1.57;;
8791;SDS011;4432;50.890;4.744;2022-07-06T00:53:04;1.60;;;1.50;;
8791;SDS011;4432;50.890;4.744;2022-07-06T00:55:41;1.70;;;1.60;;
8791;SDS011;4432;50.890;4.744;2022-07-06T00:58:08;1.80;;;1.70;;
8791;SDS011;4432;50.890;4.744;2022-07-06T01:00:34;2.40;;;1.73;;
8791;SDS011;4432;50.890;4.744;2022-07-06T01:03:00;1.83;;;1.73;;
8791;SDS011;4432;50.890;4.744;2022-07-06T01:05:27;2.13;;;1.80;;
8791;SDS011;4432;50.890;4.744;2022-07-06T01:07:53;2.20;;;1.60;;
8791;SDS011;4432;50.890;4.744;2022-07-06T01:10:19;3.47;;;2.13;;
8791;SDS011;4432;50.890;4.744;2022-07-06T01:12:46;2.00;;;1.80;;
8791;SDS011;4432;50.890;4.744;2022-07-06T01:15:22;3.93;;;1.80;;
8791;SDS011;4432;50.890;4.744;2022-07-06T01:17:51;2.10;;;1.60;;
8791;SDS011;4432;50.890;4.744;2022-07-06T01:22:44;1.90;;;1.80;;
8791;SDS011;4432;50.890;4.744;2022-07-06T01:25:11;2.13;;;1.93;;
8791;SDS011;4432;50.890;4.744;2022-07-06T01:27:38;1.90;;;1.80;;
8791;SDS011;4432;50.890;4.744;2022-07-06T01:30:09;3.77;;;1.70;;
8791;SDS011;4432;50.890;4.744;2022-07-06T01:32:40;2.20;;;1.60;;
8791;SDS011;4432;50.890;4.744;2022-07-06T01:35:08;1.73;;;1.63;;
8791;SDS011;4432;50.890;4.744;2022-07-06T01:37:35;1.83;;;1.60;;
8791;SDS011;4432;50.890;4.744;2022-07-06T01:40:02;2.00;;;1.90;;
8791;SDS011;4432;50.890;4.744;2022-07-06T01:42:30;1.90;;;1.70;;
8791;SDS011;4432;50.890;4.744;2022-07-06T01:44:55;4.60;;;1.93;;
8791;SDS011;4432;50.890;4.744;2022-07-06T01:47:21;2.20;;;2.00;;
8791;SDS011;4432;50.890;4.744;2022-07-06T01:49:47;2.20;;;2.00;;
8791;SDS011;4432;50.890;4.744;2022-07-06T01:52:13;1.70;;;1.60;;
8791;SDS011;4432;50.890;4.744;2022-07-06T01:54:39;4.33;;;1.97;;
8791;SDS011;4432;50.890;4.744;2022-07-06T01:57:05;2.13;;;1.90;;
8791;SDS011;4432;50.890;4.744;2022-07-06T01:59:31;2.27;;;2.07;;
8791;SDS011;4432;50.890;4.744;2022-07-06T02:01:57;2.13;;;1.90;;
8791;SDS011;4432;50.890;4.744;2022-07-06T02:04:22;1.67;;;1.57;;
8791;SDS011;4432;50.890;4.744;2022-07-06T02:06:48;3.10;;;1.50;;
8791;SDS011;4432;50.890;4.744;2022-07-06T02:09:14;2.23;;;1.70;;
8791;SDS011;4432;50.890;4.744;2022-07-06T02:11:41;2.20;;;2.00;;
8791;SDS011;4432;50.890;4.744;2022-07-06T02:14:07;2.93;;;1.97;;
8791;SDS011;4432;50.890;4.744;2022-07-06T02:16:33;2.10;;;1.90;;
8791;SDS011;4432;50.890;4.744;2022-07-06T02:18:58;4.50;;;2.00;;
8791;SDS011;4432;50.890;4.744;2022-07-06T02:21:24;2.23;;;2.03;;
8791;SDS011;4432;50.890;4.744;2022-07-06T02:23:50;1.87;;;1.77;;
8791;SDS011;4432;50.890;4.744;2022-07-06T02:26:16;4.20;;;2.00;;
8791;SDS011;4432;50.890;4.744;2022-07-06T02:28:41;2.30;;;2.07;;
8791;SDS011;4432;50.890;4.744;2022-07-06T02:31:07;1.80;;;1.70;;
8791;SDS011;4432;50.890;4.744;2022-07-06T02:33:33;2.50;;;2.00;;
8791;SDS011;4432;50.890;4.744;2022-07-06T02:35:59;3.77;;;2.50;;
8791;SDS011;4432;50.890;4.744;2022-07-06T02:38:24;2.10;;;1.90;;
8791;SDS011;4432;50.890;4.744;2022-07-06T02:40:50;2.23;;;2.03;;
8791;SDS011;4432;50.890;4.744;2022-07-06T02:43:16;1.97;;;1.87;;
8791;SDS011;4432;50.890;4.744;2022-07-06T02:45:41;2.20;;;1.90;;
8791;SDS011;4432;50.890;4.744;2022-07-06T02:48:07;1.97;;;1.80;;
8791;SDS011;4432;50.890;4.744;2022-07-06T02:50:33;2.20;;;1.70;;
8791;SDS011;4432;50.890;4.744;2022-07-06T02:52:58;2.67;;;2.20;;
8791;SDS011;4432;50.890;4.744;2022-07-06T02:55:25;2.03;;;1.80;;
8791;SDS011;4432;50.890;4.744;2022-07-06T02:57:51;2.90;;;2.10;;
8791;SDS011;4432;50.890;4.744;2022-07-06T03:00:17;3.20;;;2.50;;
8791;SDS011;4432;50.890;4.744;2022-07-06T03:02:43;3.07;;;1.93;;
8791;SDS011;4432;50.890;4.744;2022-07-06T03:05:09;2.97;;;2.00;;
8791;SDS011;4432;50.890;4.744;2022-07-06T03:07:34;2.93;;;2.00;;
8791;SDS011;4432;50.890;4.744;2022-07-06T03:10:00;3.97;;;2.17;;
8791;SDS011;4432;50.890;4.744;2022-07-06T03:12:26;3.70;;;2.13;;
8791;SDS011;4432;50.890;4.744;2022-07-06T03:14:52;3.83;;;2.30;;
8791;SDS011;4432;50.890;4.744;2022-07-06T03:17:17;4.93;;;2.30;;
8791;SDS011;4432;50.890;4.744;2022-07-06T03:19:43;3.77;;;2.33;;
8791;SDS011;4432;50.890;4.744;2022-07-06T03:22:09;2.13;;;1.90;;
8791;SDS011;4432;50.890;4.744;2022-07-06T03:24:34;2.43;;;1.97;;
8791;SDS011;4432;50.890;4.744;2022-07-06T03:27:00;9.47;;;2.23;;
8791;SDS011;4432;50.890;4.744;2022-07-06T03:29:26;3.67;;;2.33;;
8791;SDS011;4432;50.890;4.744;2022-07-06T03:31:51;4.57;;;2.13;;
8791;SDS011;4432;50.890;4.744;2022-07-06T03:34:17;2.53;;;2.30;;
8791;SDS011;4432;50.890;4.744;2022-07-06T03:36:43;2.60;;;2.40;;
8791;SDS011;4432;50.890;4.744;2022-07-06T03:39:09;5.10;;;1.97;;
8791;SDS011;4432;50.890;4.744;2022-07-06T03:41:34;2.80;;;2.30;;
8791;SDS011;4432;50.890;4.744;2022-07-06T03:44:00;6.87;;;2.10;;
8791;SDS011;4432;50.890;4.744;2022-07-06T03:46:26;2.30;;;2.10;;
8791;SDS011;4432;50.890;4.744;2022-07-06T03:48:53;2.93;;;2.50;;
8791;SDS011;4432;50.890;4.744;2022-07-06T03:51:19;2.23;;;2.03;;
8791;SDS011;4432;50.890;4.744;2022-07-06T03:53:44;2.43;;;2.00;;
8791;SDS011;4432;50.890;4.744;2022-07-06T03:56:10;2.53;;;2.00;;
8791;SDS011;4432;50.890;4.744;2022-07-06T03:58:55;2.47;;;2.27;;
8791;SDS011;4432;50.890;4.744;2022-07-06T04:01:24;2.80;;;2.30;;
8791;SDS011;4432;50.890;4.744;2022-07-06T04:03:50;2.23;;;2.03;;
8791;SDS011;4432;50.890;4.744;2022-07-06T04:06:17;3.33;;;2.03;;
8791;SDS011;4432;50.890;4.744;2022-07-06T04:08:42;4.63;;;2.57;;
8791;SDS011;4432;50.890;4.744;2022-07-06T04:11:08;4.20;;;2.50;;
8791;SDS011;4432;50.890;4.744;2022-07-06T04:13:34;3.53;;;2.43;;
8791;SDS011;4432;50.890;4.744;2022-07-06T04:16:00;5.83;;;2.23;;
8791;SDS011;4432;50.890;4.744;2022-07-06T04:18:26;2.60;;;2.40;;
8791;SDS011;4432;50.890;4.744;2022-07-06T04:20:52;2.40;;;2.20;;
8791;SDS011;4432;50.890;4.744;2022-07-06T04:23:18;2.20;;;2.00;;
8791;SDS011;4432;50.890;4.744;2022-07-06T04:25:44;3.20;;;2.50;;
8791;SDS011;4432;50.890;4.744;2022-07-06T04:28:10;2.30;;;2.07;;
8791;SDS011;4432;50.890;4.744;2022-07-06T04:30:35;2.23;;;1.77;;
8791;SDS011;4432;50.890;4.744;2022-07-06T04:33:01;4.13;;;2.53;;
8791;SDS011;4432;50.890;4.744;2022-07-06T04:35:27;3.70;;;2.27;;
8791;SDS011;4432;50.890;4.744;2022-07-06T04:37:53;4.80;;;2.63;;
8791;SDS011;4432;50.890;4.744;2022-07-06T04:40:19;4.33;;;2.20;;
8791;SDS011;4432;50.890;4.744;2022-07-06T04:42:44;2.50;;;2.30;;
8791;SDS011;4432;50.890;4.744;2022-07-06T04:45:10;2.87;;;2.47;;
8791;SDS011;4432;50.890;4.744;2022-07-06T04:47:36;3.67;;;2.13;;
8791;SDS011;4432;50.890;4.744;2022-07-06T04:50:03;3.20;;;2.53;;
8791;SDS011;4432;50.890;4.744;2022-07-06T04:52:29;3.73;;;2.40;;
8791;SDS011;4432;50.890;4.744;2022-07-06T04:54:55;5.27;;;2.80;;
8791;SDS011;4432;50.890;4.744;2022-07-06T04:57:21;2.40;;;2.20;;
8791;SDS011;4432;50.890;4.744;2022-07-06T04:59:47;2.83;;;2.50;;
8791;SDS011;4432;50.890;4.744;2022-07-06T05:02:13;2.57;;;2.37;;
8791;SDS011;4432;50.890;4.744;2022-07-06T05:04:38;5.63;;;2.63;;
8791;SDS011;4432;50.890;4.744;2022-07-06T05:07:04;2.60;;;2.30;;
8791;SDS011;4432;50.890;4.744;2022-07-06T05:09:30;2.13;;;2.03;;
8791;SDS011;4432;50.890;4.744;2022-07-06T05:11:56;2.30;;;2.10;;
8791;SDS011;4432;50.890;4.744;2022-07-06T05:14:22;3.87;;;2.80;;
8791;SDS011;4432;50.890;4.744;2022-07-06T05:16:47;2.53;;;2.33;;
8791;SDS011;4432;50.890;4.744;2022-07-06T05:19:13;3.00;;;2.60;;
8791;SDS011;4432;50.890;4.744;2022-07-06T05:21:39;2.60;;;2.40;;
8791;SDS011;4432;50.890;4.744;2022-07-06T05:24:05;4.53;;;2.77;;
8791;SDS011;4432;50.890;4.744;2022-07-06T05:26:30;2.83;;;2.03;;
8791;SDS011;4432;50.890;4.744;2022-07-06T05:28:56;2.80;;;2.53;;
8791;SDS011;4432;50.890;4.744;2022-07-06T05:31:22;2.60;;;2.40;;
8791;SDS011;4432;50.890;4.744;2022-07-06T05:33:48;6.13;;;2.67;;
8791;SDS011;4432;50.890;4.744;2022-07-06T05:36:13;2.33;;;2.07;;
8791;SDS011;4432;50.890;4.744;2022-07-06T05:38:39;3.37;;;1.97;;
8791;SDS011;4432;50.890;4.744;2022-07-06T05:41:05;5.57;;;2.40;;
8791;SDS011;4432;50.890;4.744;2022-07-06T05:43:30;2.53;;;2.33;;
8791;SDS011;4432;50.890;4.744;2022-07-06T05:45:56;2.83;;;2.40;;
8791;SDS011;4432;50.890;4.744;2022-07-06T05:48:22;2.47;;;2.13;;
8791;SDS011;4432;50.890;4.744;2022-07-06T05:51:06;4.63;;;2.40;;
8791;SDS011;4432;50.890;4.744;2022-07-06T05:53:32;4.00;;;2.43;;
8791;SDS011;4432;50.890;4.744;2022-07-06T05:55:58;2.53;;;2.13;;
8791;SDS011;4432;50.890;4.744;2022-07-06T05:58:24;3.20;;;2.67;;
8791;SDS011;4432;50.890;4.744;2022-07-06T06:00:50;3.13;;;2.43;;
8791;SDS011;4432;50.890;4.744;2022-07-06T06:03:16;4.63;;;2.70;;
8791;SDS011;4432;50.890;4.744;2022-07-06T06:05:42;2.50;;;2.30;;
8791;SDS011;4432;50.890;4.744;2022-07-06T06:08:08;3.43;;;2.60;;
8791;SDS011;4432;50.890;4.744;2022-07-06T06:10:33;3.90;;;2.37;;
8791;SDS011;4432;50.890;4.744;2022-07-06T06:12:59;2.57;;;2.37;;
8791;SDS011;4432;50.890;4.744;2022-07-06T06:15:25;4.43;;;2.37;;
8791;SDS011;4432;50.890;4.744;2022-07-06T06:17:51;4.93;;;2.20;;
8791;SDS011;4432;50.890;4.744;2022-07-06T06:20:17;2.43;;;2.23;;
8791;SDS011;4432;50.890;4.744;2022-07-06T06:22:52;2.87;;;2.40;;
8791;SDS011;4432;50.890;4.744;2022-07-06T06:25:30;4.40;;;2.67;;
8791;SDS011;4432;50.890;4.744;2022-07-06T06:27:56;5.20;;;2.60;;
8791;SDS011;4432;50.890;4.744;2022-07-06T06:30:22;7.63;;;2.50;;
8791;SDS011;4432;50.890;4.744;2022-07-06T06:32:47;3.13;;;2.27;;
8791;SDS011;4432;50.890;4.744;2022-07-06T06:35:13;4.80;;;2.50;;
8791;SDS011;4432;50.890;4.744;2022-07-06T06:37:39;4.60;;;2.30;;
8791;SDS011;4432;50.890;4.744;2022-07-06T06:40:05;5.37;;;2.17;;
8791;SDS011;4432;50.890;4.744;2022-07-06T06:42:32;5.33;;;3.17;;
8791;SDS011;4432;50.890;4.744;2022-07-06T06:45:00;3.00;;;2.03;;
8791;SDS011;4432;50.890;4.744;2022-07-06T06:47:26;2.50;;;2.00;;
8791;SDS011;4432;50.890;4.744;2022-07-06T06:49:51;5.47;;;2.37;;
8791;SDS011;4432;50.890;4.744;2022-07-06T06:52:17;3.73;;;1.90;;
8791;SDS011;4432;50.890;4.744;2022-07-06T06:54:43;4.97;;;2.10;;
8791;SDS011;4432;50.890;4.744;2022-07-06T06:57:08;6.13;;;2.00;;
8791;SDS011;4432;50.890;4.744;2022-07-06T06:59:34;3.50;;;1.77;;
8791;SDS011;4432;50.890;4.744;2022-07-06T07:02:00;2.50;;;2.10;;
8791;SDS011;4432;50.890;4.744;2022-07-06T07:04:25;7.50;;;2.20;;
8791;SDS011;4432;50.890;4.744;2022-07-06T07:06:51;5.27;;;2.17;;
8791;SDS011;4432;50.890;4.744;2022-07-06T07:09:17;2.63;;;1.60;;
8791;SDS011;4432;50.890;4.744;2022-07-06T07:11:43;2.87;;;1.87;;
8791;SDS011;4432;50.890;4.744;2022-07-06T07:14:09;2.87;;;1.63;;
8791;SDS011;4432;50.890;4.744;2022-07-06T07:16:34;3.37;;;1.90;;
8791;SDS011;4432;50.890;4.744;2022-07-06T07:19:00;4.33;;;1.73;;
8791;SDS011;4432;50.890;4.744;2022-07-06T07:21:25;2.90;;;1.27;;
8791;SDS011;4432;50.890;4.744;2022-07-06T07:23:51;4.90;;;1.50;;
8791;SDS011;4432;50.890;4.744;2022-07-06T07:26:17;1.57;;;1.47;;
8791;SDS011;4432;50.890;4.744;2022-07-06T07:28:43;8.43;;;1.60;;
8791;SDS011;4432;50.890;4.744;2022-07-06T07:31:08;1.67;;;1.23;;
8791;SDS011;4432;50.890;4.744;2022-07-06T07:33:34;2.33;;;1.10;;
8791;SDS011;4432;50.890;4.744;2022-07-06T07:36:00;3.40;;;1.23;;
8791;SDS011;4432;50.890;4.744;2022-07-06T07:38:26;3.50;;;1.17;;
8791;SDS011;4432;50.890;4.744;2022-07-06T07:40:54;1.87;;;1.10;;
8791;SDS011;4432;50.890;4.744;2022-07-06T07:43:20;1.37;;;1.23;;
8791;SDS011;4432;50.890;4.744;2022-07-06T07:45:47;2.37;;;1.20;;
8791;SDS011;4432;50.890;4.744;2022-07-06T07:48:13;2.10;;;1.17;;
8791;SDS011;4432;50.890;4.744;2022-07-06T07:50:40;1.07;;;1.00;;
8791;SDS011;4432;50.890;4.744;2022-07-06T07:53:06;2.00;;;0.90;;
8791;SDS011;4432;50.890;4.744;2022-07-06T07:55:32;0.90;;;0.90;;
8791;SDS011;4432;50.890;4.744;2022-07-06T07:57:58;1.17;;;0.90;;
8791;SDS011;4432;50.890;4.744;2022-07-06T08:00:24;2.63;;;0.90;;
8791;SDS011;4432;50.890;4.744;2022-07-06T08:02:51;1.23;;;1.10;;
8791;SDS011;4432;50.890;4.744;2022-07-06T08:05:17;0.73;;;0.73;;
8791;SDS011;4432;50.890;4.744;2022-07-06T08:07:43;1.80;;;0.93;;
8791;SDS011;4432;50.890;4.744;2022-07-06T08:10:09;1.93;;;1.10;;
8791;SDS011;4432;50.890;4.744;2022-07-06T08:12:35;1.70;;;1.03;;
8791;SDS011;4432;50.890;4.744;2022-07-06T08:15:02;2.77;;;1.20;;
8791;SDS011;4432;50.890;4.744;2022-07-06T08:17:29;1.00;;;1.00;;
8791;SDS011;4432;50.890;4.744;2022-07-06T08:19:55;2.00;;;1.20;;
8791;SDS011;4432;50.890;4.744;2022-07-06T08:22:22;2.83;;;0.90;;
8791;SDS011;4432;50.890;4.744;2022-07-06T08:24:48;1.87;;;1.00;;
8791;SDS011;4432;50.890;4.744;2022-07-06T08:27:14;3.20;;;1.10;;
8791;SDS011;4432;50.890;4.744;2022-07-06T08:29:40;1.17;;;0.80;;
8791;SDS011;4432;50.890;4.744;2022-07-06T08:32:06;3.07;;;0.90;;
8791;SDS011;4432;50.890;4.744;2022-07-06T08:34:31;1.13;;;0.93;;
8791;SDS011;4432;50.890;4.744;2022-07-06T08:36:57;3.03;;;1.20;;
8791;SDS011;4432;50.890;4.744;2022-07-06T08:39:23;1.10;;;1.00;;
8791;SDS011;4432;50.890;4.744;2022-07-06T08:41:49;2.40;;;1.17;;
8791;SDS011;4432;50.890;4.744;2022-07-06T08:44:16;3.57;;;1.30;;
8791;SDS011;4432;50.890;4.744;2022-07-06T08:46:43;1.20;;;1.03;;
8791;SDS011;4432;50.890;4.744;2022-07-06T08:49:14;1.43;;;1.33;;
8791;SDS011;4432;50.890;4.744;2022-07-06T08:51:42;2.87;;;1.07;;
8791;SDS011;4432;50.890;4.744;2022-07-06T08:54:08;1.03;;;0.93;;
8791;SDS011;4432;50.890;4.744;2022-07-06T08:56:35;1.90;;;1.00;;
8791;SDS011;4432;50.890;4.744;2022-07-06T08:59:01;1.63;;;1.13;;
8791;SDS011;4432;50.890;4.744;2022-07-06T09:01:27;1.97;;;1.03;;
8791;SDS011;4432;50.890;4.744;2022-07-06T09:03:54;1.57;;;1.10;;
8791;SDS011;4432;50.890;4.744;2022-07-06T09:06:23;1.40;;;1.07;;
8791;SDS011;4432;50.890;4.744;2022-07-06T09:08:49;2.63;;;1.20;;
8791;SDS011;4432;50.890;4.744;2022-07-06T09:11:20;1.53;;;1.10;;
8791;SDS011;4432;50.890;4.744;2022-07-06T09:13:47;4.30;;;1.10;;
8791;SDS011;4432;50.890;4.744;2022-07-06T09:16:15;1.77;;;1.23;;
8791;SDS011;4432;50.890;4.744;2022-07-06T09:18:45;1.57;;;1.20;;
8791;SDS011;4432;50.890;4.744;2022-07-06T09:21:21;2.43;;;1.00;;
8791;SDS011;4432;50.890;4.744;2022-07-06T09:23:53;3.27;;;1.20;;
8791;SDS011;4432;50.890;4.744;2022-07-06T09:26:22;2.33;;;1.13;;
8791;SDS011;4432;50.890;4.744;2022-07-06T09:28:49;1.47;;;1.03;;
8791;SDS011;4432;50.890;4.744;2022-07-06T09:31:15;2.17;;;1.17;;
8791;SDS011;4432;50.890;4.744;2022-07-06T09:37:03;0.97;;;0.90;;
8791;SDS011;4432;50.890;4.744;2022-07-06T09:41:52;1.30;;;0.97;;
8791;SDS011;4432;50.890;4.744;2022-07-06T09:44:23;1.90;;;1.10;;
8791;SDS011;4432;50.890;4.744;2022-07-06T09:46:50;0.90;;;0.90;;
8791;SDS011;4432;50.890;4.744;2022-07-06T09:49:20;1.33;;;1.00;;
8791;SDS011;4432;50.890;4.744;2022-07-06T09:51:47;3.90;;;1.33;;
8791;SDS011;4432;50.890;4.744;2022-07-06T09:54:15;2.07;;;1.00;;
8791;SDS011;4432;50.890;4.744;2022-07-06T09:56:42;5.63;;;1.40;;
8791;SDS011;4432;50.890;4.744;2022-07-06T09:59:10;1.37;;;1.17;;
8791;SDS011;4432;50.890;4.744;2022-07-06T10:01:37;1.77;;;1.00;;
8791;SDS011;4432;50.890;4.744;2022-07-06T10:04:07;1.80;;;1.30;;
8791;SDS011;4432;50.890;4.744;2022-07-06T10:06:40;6.73;;;1.40;;
8791;SDS011;4432;50.890;4.744;2022-07-06T10:09:07;1.23;;;0.90;;
8791;SDS011;4432;50.890;4.744;2022-07-06T10:11:34;3.30;;;1.33;;
8791;SDS011;4432;50.890;4.744;2022-07-06T10:14:06;3.47;;;1.10;;
8791;SDS011;4432;50.890;4.744;2022-07-06T10:16:34;1.90;;;1.33;;
8791;SDS011;4432;50.890;4.744;2022-07-06T10:19:02;3.00;;;1.33;;
8791;SDS011;4432;50.890;4.744;2022-07-06T10:21:30;1.87;;;0.87;;
8791;SDS011;4432;50.890;4.744;2022-07-06T10:23:57;5.60;;;1.30;;
8791;SDS011;4432;50.890;4.744;2022-07-06T10:26:25;3.50;;;1.00;;
8791;SDS011;4432;50.890;4.744;2022-07-06T10:28:51;1.43;;;1.30;;
8791;SDS011;4432;50.890;4.744;2022-07-06T10:31:18;2.37;;;1.10;;
8791;SDS011;4432;50.890;4.744;2022-07-06T10:33:45;1.10;;;1.00;;
8791;SDS011;4432;50.890;4.744;2022-07-06T10:36:12;2.67;;;1.30;;
8791;SDS011;4432;50.890;4.744;2022-07-06T10:38:40;2.57;;;1.10;;
8791;SDS011;4432;50.890;4.744;2022-07-06T10:41:08;6.97;;;1.40;;
8791;SDS011;4432;50.890;4.744;2022-07-06T10:43:35;2.33;;;1.30;;
8791;SDS011;4432;50.890;4.744;2022-07-06T10:46:06;1.53;;;1.10;;
8791;SDS011;4432;50.890;4.744;2022-07-06T10:48:40;7.37;;;1.57;;
8791;SDS011;4432;50.890;4.744;2022-07-06T10:51:07;4.33;;;1.40;;
8791;SDS011;4432;50.890;4.744;2022-07-06T10:53:34;1.70;;;1.00;;
8791;SDS011;4432;50.890;4.744;2022-07-06T10:56:05;1.13;;;1.00;;
8791;SDS011;4432;50.890;4.744;2022-07-06T10:58:40;2.03;;;1.20;;
8791;SDS011;4432;50.890;4.744;2022-07-06T11:01:17;2.00;;;1.27;;
8791;SDS011;4432;50.890;4.744;2022-07-06T11:03:44;1.73;;;1.10;;
8791;SDS011;4432;50.890;4.744;2022-07-06T11:06:15;3.40;;;1.20;;
8791;SDS011;4432;50.890;4.744;2022-07-06T11:11:14;2.47;;;1.20;;
8791;SDS011;4432;50.890;4.744;2022-07-06T11:14:03;1.27;;;1.17;;
8791;SDS011;4432;50.890;4.744;2022-07-06T11:16:31;4.00;;;1.23;;
8791;SDS011;4432;50.890;4.744;2022-07-06T11:19:03;1.33;;;1.00;;
8791;SDS011;4432;50.890;4.744;2022-07-06T11:21:38;1.17;;;1.07;;
8791;SDS011;4432;50.890;4.744;2022-07-06T11:24:24;1.50;;;1.40;;
8791;SDS011;4432;50.890;4.744;2022-07-06T11:26:52;2.03;;;1.20;;
8791;SDS011;4432;50.890;4.744;2022-07-06T11:29:20;2.23;;;1.17;;
8791;SDS011;4432;50.890;4.744;2022-07-06T11:31:48;1.23;;;1.20;;
8791;SDS011;4432;50.890;4.744;2022-07-06T11:34:26;2.70;;;1.40;;
8791;SDS011;4432;50.890;4.744;2022-07-06T11:37:13;2.10;;;1.30;;
8791;SDS011;4432;50.890;4.744;2022-07-06T11:39:40;2.80;;;1.37;;
8791;SDS011;4432;50.890;4.744;2022-07-06T11:42:07;1.93;;;1.20;;
8791;SDS011;4432;50.890;4.744;2022-07-06T11:44:34;1.43;;;1.00;;
8791;SDS011;4432;50.890;4.744;2022-07-06T11:47:02;3.13;;;1.07;;
8791;SDS011;4432;50.890;4.744;2022-07-06T11:49:29;1.37;;;1.20;;
8791;SDS011;4432;50.890;4.744;2022-07-06T11:51:56;1.40;;;1.30;;
8791;SDS011;4432;50.890;4.744;2022-07-06T11:54:23;2.67;;;1.33;;
8791;SDS011;4432;50.890;4.744;2022-07-06T11:56:54;8.10;;;1.60;;
8791;SDS011;4432;50.890;4.744;2022-07-06T11:59:26;5.73;;;1.43;;
8791;SDS011;4432;50.890;4.744;2022-07-06T12:02:00;5.13;;;1.53;;
8791;SDS011;4432;50.890;4.744;2022-07-06T12:04:35;1.80;;;1.33;;
8791;SDS011;4432;50.890;4.744;2022-07-06T12:07:08;4.07;;;1.33;;
8791;SDS011;4432;50.890;4.744;2022-07-06T12:09:39;1.53;;;1.40;;
8791;SDS011;4432;50.890;4.744;2022-07-06T12:12:06;1.50;;;1.40;;
8791;SDS011;4432;50.890;4.744;2022-07-06T12:14:34;3.80;;;1.60;;
8791;SDS011;4432;50.890;4.744;2022-07-06T12:17:05;3.50;;;1.33;;
8791;SDS011;4432;50.890;4.744;2022-07-06T12:19:38;6.23;;;1.53;;
8791;SDS011;4432;50.890;4.744;2022-07-06T12:22:06;2.90;;;1.40;;
8791;SDS011;4432;50.890;4.744;2022-07-06T12:24:33;2.67;;;1.33;;
8791;SDS011;4432;50.890;4.744;2022-07-06T12:27:16;3.00;;;1.30;;
8791;SDS011;4432;50.890;4.744;2022-07-06T12:29:43;3.33;;;1.47;;
8791;SDS011;4432;50.890;4.744;2022-07-06T12:32:18;3.00;;;1.30;;
8791;SDS011;4432;50.890;4.744;2022-07-06T12:34:47;2.90;;;1.60;;
8791;SDS011;4432;50.890;4.744;2022-07-06T12:37:31;1.43;;;1.33;;
8791;SDS011;4432;50.890;4.744;2022-07-06T12:39:57;2.77;;;1.67;;
8791;SDS011;4432;50.890;4.744;2022-07-06T12:42:23;1.37;;;1.33;;
8791;SDS011;4432;50.890;4.744;2022-07-06T12:44:50;4.00;;;1.60;;
8791;SDS011;4432;50.890;4.744;2022-07-06T12:47:20;2.03;;;1.37;;
8791;SDS011;4432;50.890;4.744;2022-07-06T12:49:48;8.80;;;1.80;;
8791;SDS011;4432;50.890;4.744;2022-07-06T12:52:33;1.70;;;1.60;;
8791;SDS011;4432;50.890;4.744;2022-07-06T12:55:01;3.83;;;1.83;;
8791;SDS011;4432;50.890;4.744;2022-07-06T12:57:27;5.17;;;1.50;;
8791;SDS011;4432;50.890;4.744;2022-07-06T13:00:11;3.20;;;1.87;;
8791;SDS011;4432;50.890;4.744;2022-07-06T13:02:37;4.50;;;1.73;;
8791;SDS011;4432;50.890;4.744;2022-07-06T13:05:08;2.47;;;1.60;;
8791;SDS011;4432;50.890;4.744;2022-07-06T13:07:37;1.83;;;1.70;;
8791;SDS011;4432;50.890;4.744;2022-07-06T13:10:05;2.03;;;1.63;;
8791;SDS011;4432;50.890;4.744;2022-07-06T13:12:32;3.47;;;1.67;;
8791;SDS011;4432;50.890;4.744;2022-07-06T13:15:00;1.80;;;1.70;;
8791;SDS011;4432;50.890;4.744;2022-07-06T13:17:26;4.57;;;1.87;;
8791;SDS011;4432;50.890;4.744;2022-07-06T13:19:52;1.40;;;1.30;;
8791;SDS011;4432;50.890;4.744;2022-07-06T13:22:17;4.00;;;1.43;;
8791;SDS011;4432;50.890;4.744;2022-07-06T13:24:43;4.97;;;1.90;;
8791;SDS011;4432;50.890;4.744;2022-07-06T13:27:10;2.97;;;1.57;;
8791;SDS011;4432;50.890;4.744;2022-07-06T13:29:36;5.40;;;1.50;;
8791;SDS011;4432;50.890;4.744;2022-07-06T13:32:02;8.93;;;2.03;;
8791;SDS011;4432;50.890;4.744;2022-07-06T13:34:29;3.37;;;1.80;;
8791;SDS011;4432;50.890;4.744;2022-07-06T13:36:55;5.07;;;1.83;;
8791;SDS011;4432;50.890;4.744;2022-07-06T13:39:21;2.00;;;1.80;;
8791;SDS011;4432;50.890;4.744;2022-07-06T13:41:47;2.40;;;1.57;;
8791;SDS011;4432;50.890;4.744;2022-07-06T13:44:12;3.80;;;1.83;;
8791;SDS011;4432;50.890;4.744;2022-07-06T13:46:38;5.80;;;1.90;;
8791;SDS011;4432;50.890;4.744;2022-07-06T13:49:04;2.13;;;1.93;;
8791;SDS011;4432;50.890;4.744;2022-07-06T13:51:30;1.80;;;1.60;;
8791;SDS011;4432;50.890;4.744;2022-07-06T13:54:00;2.00;;;1.37;;
8791;SDS011;4432;50.890;4.744;2022-07-06T13:56:26;2.93;;;1.70;;
8791;SDS011;4432;50.890;4.744;2022-07-06T13:58:53;3.97;;;1.87;;
8791;SDS011;4432;50.890;4.744;2022-07-06T14:01:20;2.73;;;1.90;;
8791;SDS011;4432;50.890;4.744;2022-07-06T14:03:46;2.00;;;1.90;;
8791;SDS011;4432;50.890;4.744;2022-07-06T14:06:13;2.87;;;1.70;;
8791;SDS011;4432;50.890;4.744;2022-07-06T14:08:40;1.93;;;1.70;;
8791;SDS011;4432;50.890;4.744;2022-07-06T14:11:06;2.53;;;1.27;;
8791;SDS011;4432;50.890;4.744;2022-07-06T14:13:33;3.70;;;1.60;;
8791;SDS011;4432;50.890;4.744;2022-07-06T14:16:00;2.43;;;1.57;;
8791;SDS011;4432;50.890;4.744;2022-07-06T14:18:26;3.43;;;1.50;;
8791;SDS011;4432;50.890;4.744;2022-07-06T14:20:52;2.80;;;1.70;;
8791;SDS011;4432;50.890;4.744;2022-07-06T14:23:18;1.70;;;1.60;;
8791;SDS011;4432;50.890;4.744;2022-07-06T14:25:45;4.97;;;1.60;;
8791;SDS011;4432;50.890;4.744;2022-07-06T14:28:11;2.40;;;1.77;;
8791;SDS011;4432;50.890;4.744;2022-07-06T14:30:41;3.83;;;1.40;;
8791;SDS011;4432;50.890;4.744;2022-07-06T14:33:09;2.47;;;1.63;;
8791;SDS011;4432;50.890;4.744;2022-07-06T14:35:37;1.37;;;1.30;;
8791;SDS011;4432;50.890;4.744;2022-07-06T14:38:17;1.47;;;1.30;;
8791;SDS011;4432;50.890;4.744;2022-07-06T14:40:43;2.73;;;1.50;;
8791;SDS011;4432;50.890;4.744;2022-07-06T14:43:09;1.30;;;1.20;;
8791;SDS011;4432;50.890;4.744;2022-07-06T14:45:35;3.60;;;1.57;;
8791;SDS011;4432;50.890;4.744;2022-07-06T14:48:01;2.60;;;1.40;;
8791;SDS011;4432;50.890;4.744;2022-07-06T14:50:28;3.60;;;1.30;;
8791;SDS011;4432;50.890;4.744;2022-07-06T14:52:54;2.70;;;1.60;;
8791;SDS011;4432;50.890;4.744;2022-07-06T14:55:20;2.07;;;1.50;;
8791;SDS011;4432;50.890;4.744;2022-07-06T14:57:47;1.50;;;1.40;;
8791;SDS011;4432;50.890;4.744;2022-07-06T15:00:13;1.77;;;1.40;;
8791;SDS011;4432;50.890;4.744;2022-07-06T15:02:40;2.73;;;1.33;;
8791;SDS011;4432;50.890;4.744;2022-07-06T15:05:07;1.60;;;1.50;;
8791;SDS011;4432;50.890;4.744;2022-07-06T15:07:34;1.33;;;1.23;;
8791;SDS011;4432;50.890;4.744;2022-07-06T15:10:00;1.57;;;1.33;;
8791;SDS011;4432;50.890;4.744;2022-07-06T15:12:26;4.67;;;1.47;;
8791;SDS011;4432;50.890;4.744;2022-07-06T15:14:51;2.27;;;1.13;;
8791;SDS011;4432;50.890;4.744;2022-07-06T15:17:17;2.03;;;1.60;;
8791;SDS011;4432;50.890;4.744;2022-07-06T15:19:43;1.73;;;1.43;;
8791;SDS011;4432;50.890;4.744;2022-07-06T15:22:10;1.50;;;1.40;;
8791;SDS011;4432;50.890;4.744;2022-07-06T15:24:36;1.73;;;1.20;;
8791;SDS011;4432;50.890;4.744;2022-07-06T15:27:03;1.50;;;1.33;;